メインページ
METAR-TAF:

METAR-TAF

空港 :

フィウミチーノ空港

ローマ・フィウミチーノ, イタリア

緯度: 41-48N, 経度: 012-14E, 海抜: 2m

現時点の気象観測

当レポートは19分前の06:20(UTC)に作成
の風 3kt、北東から東/南東の間で変化する
気温 8°C
湿度 61%
気圧 1015 hPa
視程10km以上
1,500メートル以下は雲なし、積乱雲なし

METAR: LIRF 040620Z 09003KT 040V120 CAVOK 08/01 Q1015 NOSIG

時間: 08:39 (06:39 UTC)

予報

当レポートは1時間39分前の05:00(UTC)に作成
予報は04日の 06時(UTC)から 05日の 12時(UTC)まで有効
変向風 5kt
視程10km以上
1,500メートル以下は雲なし、積乱雲なし
04日の 06時(UTC)から 04日の 09時(UTC)まで徐々に
北/北東の風 14kt
04日の 18時(UTC)から 05日の 12時(UTC)まで一時的に
北/北東の風 18kt、最大28ktの突風を伴う

TAF: LIRF 040500Z 0406/0512 VRB05KT CAVOK BECMG 0406/0409 03014KT TEMPO 0418/0512 03018G28KT

4,000以上の空港の気象観測と天気予報(METAR報とTAF報)

利用可能な観測所は地図上に黄色い丸と赤い丸で示す。

丸の上にカーソルを重ねると観測所名を参照できる。

次にクリックすると気象観測と天気予報を参照できる。

マップの切り替え:黒色「×」印の緑ボタンをクリックして拡大、「-」印の緑ボタンをクリックして縮小、緑色の三角印をクリックして隣りの地図に切り替え


METAR-TAF: